Lancaster, PA

8:30 AM EST on March 02, 2015 (GMT -0500)
Paradise | Change Station
CLOSE
Current Station
Personal Weather Station
Location: Paradise, PA
Elevation: 365 ft
Nearby Weather Stations
Active Advisory: Special Statement Active Notice: Public Information Statement

Elev 365 ft 40.01 °N, 76.14 °W | Updated 4 minutes ago

Overcast
Overcast
31.2 °F
Feels Like 31 °F
N
3.0
Wind Variable Wind from WNW
Gusts 4.0 mph

Today
High -- | Low -- °F
--% Chance of Precip.
Yesterday
High -- | Low -- °F
Precip. -- in
6:36 AM 5:57 PM
Waxing Gibbous, 91% visible
Pressure 30.15 in
Visibility 1.2 miles
Clouds Few 2900 ft
Overcast 3500 ft
Windchill 31 °F
Dew Point 30 °F
Humidity 95%
Rainfall 0.00 in
Snow Depth Not available.
UV 0 out of 12
Pollen .50 out of 12
Air Quality Not available.
Flu Activity Not available.
METAR KLNS 021253Z 26005KT 1 1/4SM BR FEW029 OVC035 M02/M02 A3013 RMK AO2 SLP209 T10171022

More Conditions Fewer Conditions

Pressure 30.15 in
Visibility 1.2 miles
Clouds Few 2900 ft
Overcast 3500 ft
Windchill 31 °F
Dew Point 30 °F
Humidity 95%
Rainfall 0.00 in
Snow Depth Not available.
UV 0 out of 12
Pollen .50 out of 12
Air Quality Not available.
Flu Activity Not available.
METAR KLNS 021253Z 26005KT 1 1/4SM BR FEW029 OVC035 M02/M02 A3013 RMK AO2 SLP209 T10171022

More Conditions Fewer Conditions

10-Day Weather Forecast

Almanac

Astronomy

Mar. 02, 2015 Rise Set
Actual Time
Civil Twilight
Nautical Twilight
Astronomical Twilight
Moon
Length of Visible Light
Length of Day
Tomorrow will be .
, % of the Moon is Illuminated

Today's Extremes

State Highs State Lows

Community

WunderPhotos

Upload Photos

1,801,782 photos uploaded!

WunderBlogs® & News

Nearby

Air Quality

  Air Quality AQ Index Pollutant
Not available.

Snow Depth

Station Depth Elevation

Earthquake Activity

City Distance Mag. Time & Date
Minimum magnitude displayed is 2.5.

Coastal Water Temperatures

Place Temperature

Nearby Weather Stations

Special Statement
Statement as of 6:47 AM EST on March 02, 2015

... Windy and colder conditions will create areas of blowing snow
and icy roads this morning...

A cold front pushing across the Susquehanna valley early today
will be followed by colder air and a gusty northwest wind... with
flurries and scattered mountains snow showers.

The wind... gusting between 20 and 30 mph... will blow around the
fresh snow cover and cause portions of untreated roads to be snow
and ice covered.

Use extra caution during your morning commute to work and school.
Allow plenty of extra time to clear the ice and snow off your
vehicle in order to reach your destination safely.


Lambert